Time;durP1;ratioP1;P1;durP2;ratioP2;P2;SDS_P1;SDS_P2;PMS_P1;PMS_P2;Temp;Humidity;BMP_temperature;BMP_pressure;BME280_temperature;BME280_humidity;BME280_pressure;Samples;Min_cycle;Max_cycle;Signal;HPM_P1;HPM_P2
2022/11/25 00:02:07;;;;;;;13.93;5.13;;;2.50;1.00;;;;;;5093747;28;20217;-82
2022/11/25 00:04:59;;;;;;;13.47;5.10;;;2.60;1.00;;;;;;5083392;28;20215;-82
2022/11/25 00:07:24;;;;;;;13.02;4.30;;;2.60;1.00;;;;;;5096679;28;20190;-83
2022/11/25 00:13:12;;;;;;;13.10;3.65;;;2.60;1.00;;;;;;5095729;28;20181;-83
2022/11/25 00:16:02;;;;;;;17.03;3.90;;;2.50;1.00;;;;;;5078775;28;20179;-83
2022/11/25 00:18:50;;;;;;;10.65;4.75;;;2.50;1.00;;;;;;5074993;28;20646;-82
2022/11/25 00:21:23;;;;;;;30.58;5.65;;;2.50;1.00;;;;;;5096647;28;20198;-83
2022/11/25 00:24:29;;;;;;;12.52;4.90;;;2.50;1.00;;;;;;5095155;28;20257;-82
2022/11/25 00:27:03;;;;;;;18.25;5.70;;;2.50;1.00;;;;;;5088895;28;20184;-82
2022/11/25 00:29:47;;;;;;;19.95;4.50;;;2.50;1.00;;;;;;5090182;28;20199;-83
2022/11/25 00:32:47;;;;;;;16.45;4.47;;;2.40;1.00;;;;;;5091966;28;20171;-82
2022/11/25 00:38:34;;;;;;;22.85;4.65;;;2.40;1.00;;;;;;5076380;28;20159;-90
2022/11/25 00:44:40;;;;;;;14.85;3.80;;;2.30;1.00;;;;;;5088726;28;20165;-91
2022/11/25 00:50:27;;;;;;;18.38;4.63;;;2.30;1.00;;;;;;5089111;28;20179;-90
2022/11/25 00:52:53;;;;;;;15.80;4.50;;;2.20;1.00;;;;;;5074261;28;20546;-83
2022/11/25 00:55:23;;;;;;;25.23;4.60;;;2.20;1.00;;;;;;5074954;28;20156;-82
2022/11/25 00:57:53;;;;;;;11.93;4.18;;;2.20;1.00;;;;;;5074767;28;20753;-82
2022/11/25 01:00:23;;;;;;;12.82;4.50;;;2.20;1.00;;;;;;5074501;28;20685;-82
2022/11/25 01:03:17;;;;;;;9.70;5.00;;;2.20;1.00;;;;;;5075719;28;20615;-82
2022/11/25 01:06:23;;;;;;;12.13;4.47;;;2.20;1.00;;;;;;5076917;28;20207;-82
2022/11/25 01:12:10;;;;;;;21.60;4.75;;;2.20;1.00;;;;;;5075497;28;20170;-90
2022/11/25 01:17:58;;;;;;;13.48;4.78;;;2.20;1.00;;;;;;5084789;28;20258;-90
2022/11/25 01:21:05;;;;;;;12.33;4.60;;;2.10;1.00;;;;;;5075462;28;20285;-90
2022/11/25 01:23:35;;;;;;;17.75;4.85;;;2.20;1.00;;;;;;5074218;28;20158;-82
2022/11/25 01:26:09;;;;;;;20.38;4.60;;;2.20;1.00;;;;;;5074731;28;20179;-82
2022/11/25 01:29:17;;;;;;;12.00;4.85;;;2.20;1.00;;;;;;5074630;28;20189;-82
2022/11/25 01:31:44;;;;;;;14.63;4.63;;;2.10;1.00;;;;;;5076914;28;20712;-82
2022/11/25 01:34:16;;;;;;;7.07;4.70;;;2.20;1.00;;;;;;5077448;28;20175;-82
2022/11/25 01:40:04;;;;;;;16.42;4.95;;;2.20;1.00;;;;;;5075216;28;20190;-90
2022/11/25 01:45:54;;;;;;;9.15;4.40;;;2.40;1.00;;;;;;5075352;28;20158;-90
2022/11/25 01:55:14;;;;;;;16.08;5.38;;;2.60;1.00;;;;;;5074350;28;20196;-90
2022/11/25 01:58:02;;;;;;;16.85;5.30;;;2.70;1.10;;;;;;5073494;28;20250;-90
2022/11/25 02:03:54;;;;;;;17.08;5.07;;;2.90;2.60;;;;;;5092861;28;20158;-90
2022/11/25 02:06:46;;;;;;;10.52;5.68;;;2.90;2.50;;;;;;5073599;28;20236;-86
2022/11/25 02:09:14;;;;;;;14.32;5.47;;;2.90;1.30;;;;;;5073608;28;20336;-90
2022/11/25 02:18:25;;;;;;;9.82;5.00;;;3.00;1.00;;;;;;5074680;28;20536;-90
2022/11/25 02:24:21;;;;;;;14.50;5.45;;;3.10;1.00;;;;;;5074738;28;20169;-91
2022/11/25 02:30:09;;;;;;;12.85;5.60;;;3.00;1.00;;;;;;5074449;28;20201;-90
2022/11/25 02:33:11;;;;;;;32.37;7.30;;;3.10;1.00;;;;;;5073625;28;20160;-90
2022/11/25 02:42:23;;;;;;;10.45;4.90;;;3.10;1.00;;;;;;5095028;28;20258;-90
2022/11/25 02:54:55;;;;;;;13.73;4.85;;;3.10;1.00;;;;;;5089107;28;20364;-91
2022/11/25 03:00:43;;;;;;;15.18;5.50;;;3.10;1.00;;;;;;5084943;28;20688;-91
2022/11/25 03:06:36;;;;;;;9.30;4.80;;;3.00;1.00;;;;;;5080162;28;20177;-91
2022/11/25 03:09:02;;;;;;;15.80;5.28;;;3.10;1.00;;;;;;5086192;28;20547;-82
2022/11/25 03:14:29;;;;;;;18.30;5.78;;;3.00;1.00;;;;;;5095219;28;20181;-82
2022/11/25 03:16:59;;;;;;;9.85;5.70;;;3.10;1.00;;;;;;5084714;28;20192;-82
2022/11/25 03:19:35;;;;;;;16.08;6.07;;;3.20;1.90;;;;;;5078773;28;20666;-82
2022/11/25 03:25:23;;;;;;;16.05;5.72;;;3.40;4.10;;;;;;5078109;28;20158;-91
2022/11/25 03:31:10;;;;;;;14.25;6.72;;;3.40;4.90;;;;;;5077408;28;20224;-91
2022/11/25 03:43:42;;;;;;;12.32;5.55;;;3.70;1.00;;;;;;5092217;28;20181;-91
2022/11/25 03:53:11;;;;;;;10.90;4.97;;;3.80;1.00;;;;;;5077256;28;20620;-83
2022/11/25 03:55:41;;;;;;;12.60;5.40;;;3.90;1.00;;;;;;5078388;28;20190;-82
2022/11/25 03:58:17;;;;;;;21.58;5.43;;;3.90;1.00;;;;;;5077085;28;20967;-82
2022/11/25 04:00:53;;;;;;;14.70;6.15;;;3.90;1.00;;;;;;5085919;28;20206;-82
2022/11/25 04:03:23;;;;;;;20.50;5.57;;;4.00;1.00;;;;;;5079433;28;20708;-83
2022/11/25 04:06:05;;;;;;;8.80;5.60;;;4.00;1.00;;;;;;5085289;28;20782;-83
2022/11/25 04:15:30;;;;;;;11.30;5.80;;;4.00;1.00;;;;;;5096869;28;20402;-91
2022/11/25 04:21:18;;;;;;;16.05;6.72;;;4.00;1.00;;;;;;5096744;28;20463;-91
2022/11/25 04:27:05;;;;;;;13.20;5.97;;;4.00;1.00;;;;;;5077153;28;20187;-84
2022/11/25 04:32:53;;;;;;;13.43;5.35;;;4.10;1.00;;;;;;5087586;28;20178;-81
2022/11/25 04:36:05;;;;;;;18.47;6.33;;;4.10;1.00;;;;;;5092407;28;20554;-85
2022/11/25 04:42:33;;;;;;;10.82;6.00;;;4.20;1.00;;;;;;5082319;28;20205;-85
2022/11/25 04:51:41;;;;;;;14.23;6.10;;;4.30;1.00;;;;;;5084501;28;20405;-85
2022/11/25 04:54:35;;;;;;;16.23;5.87;;;4.40;1.00;;;;;;5090947;28;20175;-85
2022/11/25 05:03:47;;;;;;;11.13;5.80;;;4.40;1.00;;;;;;5078814;28;20181;-85
2022/11/25 05:06:36;;;;;;;9.93;5.80;;;4.30;1.00;;;;;;5095159;28;20418;-85
2022/11/25 05:12:47;;;;;;;10.48;6.22;;;4.40;1.00;;;;;;5076357;28;20404;-82
2022/11/25 05:15:17;;;;;;;13.20;5.90;;;4.30;1.00;;;;;;5075756;28;20174;-82
2022/11/25 05:17:53;;;;;;;16.63;5.90;;;4.20;1.00;;;;;;5086401;28;20412;-82
2022/11/25 05:20:23;;;;;;;12.30;6.20;;;4.20;1.00;;;;;;5073311;28;20951;-83
2022/11/25 05:29:36;;;;;;;16.75;6.00;;;4.10;1.00;;;;;;5073853;28;20762;-86
2022/11/25 05:32:32;;;;;;;12.18;6.00;;;4.20;1.00;;;;;;5073528;28;20175;-85
2022/11/25 05:34:58;;;;;;;10.67;5.53;;;4.10;1.00;;;;;;5081777;28;20186;-85
2022/11/25 05:41:17;;;;;;;18.20;5.78;;;4.20;1.00;;;;;;5089576;28;20213;-85
2022/11/25 05:43:54;;;;;;;11.45;5.85;;;4.20;1.00;;;;;;5081756;28;20203;-85
2022/11/25 05:46:43;;;;;;;14.93;6.60;;;4.20;1.00;;;;;;5090292;28;20257;-85
2022/11/25 05:49:47;;;;;;;11.03;5.43;;;4.30;1.00;;;;;;5088459;28;20243;-85
2022/11/25 05:55:35;;;;;;;32.10;7.67;;;4.40;1.00;;;;;;5081269;28;20229;-85
2022/11/25 05:58:29;;;;;;;11.43;6.43;;;4.40;1.00;;;;;;5088029;28;20424;-85
2022/11/25 06:00:59;;;;;;;11.73;6.20;;;4.50;1.00;;;;;;5080926;28;20228;-85
2022/11/25 06:06:47;;;;;;;13.90;5.30;;;4.50;1.00;;;;;;5080191;28;20412;-85
2022/11/25 06:09:50;;;;;;;11.33;5.87;;;4.60;1.00;;;;;;5082613;28;20183;-86
2022/11/25 06:15:42;;;;;;;10.70;5.80;;;4.70;1.00;;;;;;5078602;28;20212;-85
2022/11/25 06:18:09;;;;;;;11.63;5.77;;;4.70;1.00;;;;;;5079230;28;20420;-85
2022/11/25 06:20:55;;;;;;;15.20;5.60;;;4.80;1.00;;;;;;5092968;28;20472;-85
2022/11/25 06:23:59;;;;;;;15.47;5.80;;;4.80;1.00;;;;;;5080779;28;20404;-85
2022/11/25 06:26:35;;;;;;;11.47;5.73;;;4.90;1.00;;;;;;5080160;28;20419;-80
2022/11/25 06:29:01;;;;;;;8.53;5.90;;;4.80;1.00;;;;;;5093622;28;20872;-80
2022/11/25 06:32:11;;;;;;;12.93;5.80;;;4.90;1.00;;;;;;5080880;28;20431;-81
2022/11/25 06:35:05;;;;;;;8.83;6.03;;;4.90;1.00;;;;;;5084878;28;20178;-82
2022/11/25 06:37:41;;;;;;;8.30;5.33;;;4.90;1.00;;;;;;5074989;28;20465;-81
2022/11/25 06:40:11;;;;;;;10.70;5.80;;;4.90;1.00;;;;;;5080085;28;20412;-88
2022/11/25 06:49:22;;;;;;;22.83;6.60;;;4.70;1.00;;;;;;5082424;28;20239;-91
2022/11/25 06:55:10;;;;;;;16.83;6.13;;;4.70;1.00;;;;;;5085241;28;20436;-81
2022/11/25 06:57:42;;;;;;;10.83;5.60;;;4.70;1.00;;;;;;5077121;28;20159;-81
2022/11/25 07:00:08;;;;;;;9.93;5.47;;;4.80;1.00;;;;;;5085815;28;20675;-82
2022/11/25 07:02:41;;;;;;;11.50;5.97;;;4.80;1.00;;;;;;5081580;28;20420;-81
2022/11/25 07:05:17;;;;;;;15.40;6.37;;;4.80;1.00;;;;;;5088542;28;20934;-82
2022/11/25 07:07:43;;;;;;;12.30;5.77;;;4.80;1.00;;;;;;5083250;28;20444;-82
2022/11/25 07:10:41;;;;;;;16.80;5.47;;;4.90;1.00;;;;;;5090627;28;20799;-82
2022/11/25 07:13:07;;;;;;;10.40;5.87;;;4.90;1.00;;;;;;5082345;28;20174;-82
2022/11/25 07:15:37;;;;;;;12.70;5.50;;;5.00;1.00;;;;;;5086282;28;20409;-81
2022/11/25 07:18:12;;;;;;;13.60;6.13;;;5.00;1.00;;;;;;5078630;28;20180;-82
2022/11/25 07:20:53;;;;;;;12.60;6.03;;;5.00;1.00;;;;;;5085657;28;20444;-82
2022/11/25 07:23:36;;;;;;;13.47;6.60;;;5.10;1.00;;;;;;5096813;28;20957;-82
2022/11/25 07:26:09;;;;;;;15.83;6.13;;;5.20;1.00;;;;;;5083345;28;20907;-82
2022/11/25 07:28:36;;;;;;;11.00;5.90;;;5.20;1.00;;;;;;5091612;28;20409;-82
2022/11/25 07:31:07;;;;;;;8.17;5.43;;;5.20;1.00;;;;;;5084406;28;20523;-82
2022/11/25 07:33:54;;;;;;;12.03;6.37;;;5.30;1.00;;;;;;5076605;28;20390;-82
2022/11/25 07:37:05;;;;;;;17.17;6.07;;;5.40;1.00;;;;;;5080579;28;20431;-82
2022/11/25 07:39:53;;;;;;;11.80;5.73;;;5.50;1.00;;;;;;5092165;28;20416;-82
2022/11/25 07:42:35;;;;;;;10.50;5.97;;;5.70;1.00;;;;;;5076065;28;20452;-91
2022/11/25 07:48:35;;;;;;;12.60;5.80;;;5.80;1.00;;;;;;5079638;28;20456;-91
2022/11/25 07:51:18;;;;;;;12.20;6.13;;;5.90;1.00;;;;;;5093831;28;20441;-92
2022/11/25 07:54:01;;;;;;;13.60;6.03;;;6.00;1.00;;;;;;5078327;28;20420;-92
2022/11/25 07:56:28;;;;;;;10.23;6.20;;;5.90;1.00;;;;;;5086540;28;20448;-91
2022/11/25 07:58:54;;;;;;;16.03;6.00;;;6.00;1.00;;;;;;5090289;28;20420;-91
2022/11/25 08:01:20;;;;;;;17.70;6.07;;;6.00;1.00;;;;;;5076531;28;20932;-92
2022/11/25 08:03:59;;;;;;;14.83;6.60;;;6.20;1.00;;;;;;5077251;28;20466;-92
2022/11/25 08:06:29;;;;;;;13.03;6.27;;;6.30;1.00;;;;;;5087847;28;20511;-91
2022/11/25 08:12:17;;;;;;;19.00;7.83;;;6.50;1.00;;;;;;5076344;28;20392;-83
2022/11/25 08:15:18;;;;;;;17.67;6.20;;;6.60;1.00;;;;;;5076428;28;20405;-82
2022/11/25 08:17:59;;;;;;;12.93;6.20;;;6.60;1.00;;;;;;5076362;28;20167;-82
2022/11/25 08:20:25;;;;;;;17.77;7.00;;;6.80;1.00;;;;;;5087343;28;20452;-82
2022/11/25 08:23:29;;;;;;;18.70;7.10;;;6.90;1.00;;;;;;5087476;28;21018;-82
2022/11/25 08:26:36;;;;;;;15.17;6.70;;;6.80;1.00;;;;;;5076402;28;20170;-92
2022/11/25 08:29:35;;;;;;;14.70;6.90;;;6.90;1.00;;;;;;5086250;28;20447;-92
2022/11/25 08:32:41;;;;;;;17.57;6.90;;;7.00;1.00;;;;;;5084392;28;20782;-92
2022/11/25 08:42:05;;;;;;;23.43;7.13;;;7.20;1.00;;;;;;5076365;28;20535;-83
2022/11/25 08:44:30;;;;;;;18.23;7.63;;;7.30;1.00;;;;;;5075434;28;20413;-82
2022/11/25 08:47:23;;;;;;;21.53;6.63;;;7.30;1.00;;;;;;5075102;28;20923;-82
2022/11/25 08:53:18;;;;;;;16.00;7.23;;;7.50;1.00;;;;;;5088147;28;20400;-82
2022/11/25 08:55:59;;;;;;;19.33;7.00;;;7.50;1.00;;;;;;5087906;28;20410;-82
2022/11/25 08:58:53;;;;;;;15.80;6.40;;;7.60;1.00;;;;;;5088680;28;20408;-82
2022/11/25 09:01:20;;;;;;;15.43;6.40;;;7.60;1.00;;;;;;5073782;28;20453;-82
2022/11/25 09:03:50;;;;;;;20.93;6.17;;;7.70;1.00;;;;;;5081240;28;20603;-82
2022/11/25 09:06:37;;;;;;;12.00;6.27;;;7.80;1.00;;;;;;5081749;28;20802;-81
2022/11/25 09:09:04;;;;;;;21.53;6.60;;;7.90;1.00;;;;;;5087151;28;20791;-81
2022/11/25 09:14:52;;;;;;;8.97;5.27;;;8.20;1.00;;;;;;5080751;28;20412;-92
2022/11/25 09:17:17;;;;;;;24.03;6.63;;;8.10;1.00;;;;;;5076326;28;20429;-92
2022/11/25 09:19:53;;;;;;;9.33;5.60;;;8.20;1.00;;;;;;5082135;28;20710;-92
2022/11/25 09:22:47;;;;;;;11.63;5.77;;;8.20;1.00;;;;;;5094452;28;20661;-92
2022/11/25 09:25:29;;;;;;;13.73;5.83;;;8.20;1.00;;;;;;5090174;28;20417;-92
2022/11/25 09:48:05;;;;;;;13.70;6.40;;;8.40;1.00;;;;;;5084147;28;20517;-93
2022/11/25 09:54:02;;;;;;;9.60;5.80;;;8.70;1.00;;;;;;5075995;28;20392;-92
2022/11/25 09:56:28;;;;;;;18.40;6.43;;;8.80;1.00;;;;;;5087686;28;20412;-82
2022/11/25 09:59:38;;;;;;;13.00;6.40;;;8.90;1.00;;;;;;5091515;28;20541;-82
2022/11/25 10:02:38;;;;;;;19.23;6.20;;;8.90;1.00;;;;;;4987988;28;20540;-82
2022/11/25 10:05:47;;;;;;;10.10;5.47;;;8.80;1.00;;;;;;4994995;28;20424;-82
2022/11/25 10:08:21;;;;;;;9.70;5.50;;;8.80;1.00;;;;;;4995467;28;20498;-83
2022/11/25 10:11:13;;;;;;;13.60;6.37;;;8.80;1.00;;;;;;5012123;28;20467;-82
2022/11/25 10:17:10;;;;;;;12.83;5.70;;;9.10;1.00;;;;;;4993298;28;20574;-92
2022/11/25 10:20:03;;;;;;;7.83;5.87;;;9.20;1.00;;;;;;4990247;28;20846;-92
2022/11/25 10:22:50;;;;;;;12.77;5.90;;;9.00;1.00;;;;;;4988038;28;20464;-92
2022/11/25 10:28:59;;;;;;;17.77;6.30;;;9.20;1.00;;;;;;5013189;28;20387;-92
2022/11/25 10:32:19;;;;;;;11.10;5.43;;;8.90;1.00;;;;;;4996561;28;20420;-92
2022/11/25 10:38:12;;;;;;;11.27;5.70;;;8.90;1.00;;;;;;5031571;28;20402;-92
2022/11/25 10:41:05;;;;;;;13.73;6.27;;;9.10;1.00;;;;;;5025770;28;20443;-92
2022/11/25 10:43:36;;;;;;;15.20;6.23;;;9.10;1.00;;;;;;4997820;28;20420;-83
2022/11/25 10:46:29;;;;;;;12.67;6.97;;;9.30;1.00;;;;;;5023232;28;20403;-82
2022/11/25 10:49:13;;;;;;;18.40;6.93;;;9.30;1.00;;;;;;5024293;28;20522;-82
2022/11/25 10:51:59;;;;;;;13.10;6.50;;;9.60;1.00;;;;;;5037576;28;20418;-84
2022/11/25 10:54:35;;;;;;;12.97;6.70;;;9.60;1.00;;;;;;5019190;28;20418;-83
2022/11/25 10:57:26;;;;;;;12.10;6.10;;;9.60;1.00;;;;;;5040079;28;20509;-83
2022/11/25 11:00:47;;;;;;;8.17;6.20;;;9.80;1.00;;;;;;5035825;28;20929;-82
2022/11/25 11:03:24;;;;;;;14.23;6.30;;;9.80;1.00;;;;;;5031703;28;20899;-82
2022/11/25 11:05:54;;;;;;;14.60;7.10;;;10.00;1.00;;;;;;5036857;28;20449;-82
2022/11/25 11:21:46;;;;;;;9.30;6.40;;;10.60;1.00;;;;;;5069879;28;20463;-78
2022/11/25 11:24:28;;;;;;;18.00;6.90;;;10.60;1.00;;;;;;5091403;28;20420;-76
2022/11/25 11:27:22;;;;;;;11.40;6.23;;;10.50;1.00;;;;;;5085196;28;20919;-75
2022/11/25 11:30:02;;;;;;;13.03;6.43;;;10.50;1.00;;;;;;5085247;28;20400;-76
2022/11/25 11:32:28;;;;;;;12.30;6.73;;;10.50;1.00;;;;;;5090507;28;20423;-75
2022/11/25 11:35:03;;;;;;;14.27;5.80;;;10.50;1.00;;;;;;5084360;28;20393;-75
2022/11/25 11:37:39;;;;;;;11.90;6.13;;;10.60;1.00;;;;;;5080150;28;20182;-75
2022/11/25 11:40:32;;;;;;;10.60;5.60;;;10.70;1.00;;;;;;5088680;28;20467;-75
2022/11/25 11:43:03;;;;;;;11.20;5.73;;;10.70;1.00;;;;;;5079308;28;20405;-75
2022/11/25 11:45:51;;;;;;;11.53;5.60;;;10.70;1.00;;;;;;5086947;28;20428;-75
2022/11/25 11:48:39;;;;;;;16.03;5.40;;;10.80;1.00;;;;;;5093529;28;20447;-75
2022/11/25 11:51:33;;;;;;;5.63;4.87;;;10.90;1.00;;;;;;5089230;28;20428;-75
2022/11/25 11:54:21;;;;;;;11.17;5.60;;;10.90;1.00;;;;;;5085616;28;20413;-75
2022/11/25 11:57:02;;;;;;;12.93;5.30;;;10.70;1.00;;;;;;5095388;28;20746;-76
2022/11/25 11:59:54;;;;;;;11.50;6.40;;;10.30;1.00;;;;;;5089972;28;20466;-77
2022/11/25 12:02:48;;;;;;;12.23;6.43;;;10.20;1.00;;;;;;5077820;28;20444;-78
2022/11/25 12:05:20;;;;;;;12.93;5.20;;;10.20;1.00;;;;;;5090999;28;20428;-78
2022/11/25 12:08:11;;;;;;;21.33;5.50;;;10.30;1.00;;;;;;5078974;28;20464;-77
2022/11/25 12:11:02;;;;;;;15.27;6.10;;;10.50;1.00;;;;;;5089403;28;20445;-77
2022/11/25 12:14:13;;;;;;;10.57;6.43;;;10.60;1.00;;;;;;5075992;28;20911;-77
2022/11/25 12:16:54;;;;;;;10.23;5.40;;;10.50;1.00;;;;;;5069821;28;20441;-78
2022/11/25 12:19:35;;;;;;;8.57;5.70;;;10.50;1.00;;;;;;5092623;28;20428;-78
2022/11/25 12:22:12;;;;;;;13.53;5.33;;;10.30;1.00;;;;;;5079573;28;20448;-78
2022/11/25 12:25:07;;;;;;;11.40;5.57;;;10.30;1.00;;;;;;5095959;28;20416;-78
2022/11/25 12:27:49;;;;;;;12.30;5.37;;;10.20;1.00;;;;;;5090085;28;20455;-78
2022/11/25 12:30:43;;;;;;;13.03;5.50;;;10.00;1.00;;;;;;5081755;28;20503;-77
2022/11/25 12:33:39;;;;;;;10.87;5.40;;;9.70;1.00;;;;;;5082901;28;20429;-78
2022/11/25 12:36:10;;;;;;;7.77;5.20;;;9.50;1.00;;;;;;5085428;28;20404;-78
2022/11/25 12:38:56;;;;;;;14.67;5.23;;;9.50;1.00;;;;;;5088227;28;20437;-78
2022/11/25 12:41:25;;;;;;;10.23;5.00;;;9.50;1.00;;;;;;5075536;28;20444;-78
2022/11/25 12:44:04;;;;;;;11.87;4.93;;;9.40;1.00;;;;;;5094845;28;20409;-78
2022/11/25 12:46:53;;;;;;;8.07;5.00;;;9.40;1.00;;;;;;5079355;28;20405;-78
2022/11/25 12:49:43;;;;;;;10.50;5.10;;;9.40;1.00;;;;;;5085058;28;20909;-78
2022/11/25 12:52:24;;;;;;;15.10;5.77;;;9.50;1.00;;;;;;5083621;28;20405;-78
2022/11/25 12:55:18;;;;;;;10.43;6.00;;;9.60;1.00;;;;;;5081743;28;20955;-78
2022/11/25 12:58:17;;;;;;;13.77;5.73;;;9.70;1.00;;;;;;5081854;28;20887;-78
2022/11/25 13:01:11;;;;;;;14.50;5.77;;;9.80;1.00;;;;;;5083026;28;20456;-78
2022/11/25 13:04:17;;;;;;;9.80;5.90;;;9.80;1.00;;;;;;5083508;28;20568;-78
2022/11/25 13:07:08;;;;;;;12.00;6.10;;;10.00;1.00;;;;;;5082447;28;20498;-78
2022/11/25 13:10:13;;;;;;;11.13;5.37;;;10.10;1.00;;;;;;5080735;28;20433;-79
2022/11/25 13:12:41;;;;;;;9.93;5.43;;;10.30;1.00;;;;;;5082442;28;20427;-79
2022/11/25 13:15:24;;;;;;;14.27;5.30;;;10.30;1.00;;;;;;5081608;28;20410;-78
2022/11/25 13:18:07;;;;;;;13.53;5.40;;;10.20;1.00;;;;;;5081896;28;20421;-78
2022/11/25 13:20:53;;;;;;;11.50;5.10;;;10.20;1.00;;;;;;5081625;28;20479;-77
2022/11/25 13:23:55;;;;;;;9.53;4.90;;;10.40;1.00;;;;;;5094643;28;20395;-78
2022/11/25 13:26:35;;;;;;;8.10;5.23;;;10.70;1.00;;;;;;5079769;28;20451;-78
2022/11/25 13:29:27;;;;;;;12.43;5.80;;;10.90;1.00;;;;;;5093663;28;20450;-78
2022/11/25 13:32:03;;;;;;;10.23;5.13;;;11.00;1.00;;;;;;5008953;28;20462;-78
2022/11/25 13:34:33;;;;;;;11.63;5.50;;;11.00;1.00;;;;;;5011572;28;20447;-78
2022/11/25 13:37:34;;;;;;;11.00;5.10;;;11.20;1.00;;;;;;5012287;28;20511;-78
2022/11/25 13:40:36;;;;;;;9.90;4.87;;;11.20;1.00;;;;;;5012584;28;20472;-77
2022/11/25 13:43:20;;;;;;;10.23;5.27;;;11.10;1.00;;;;;;5004879;28;20516;-77
2022/11/25 13:45:55;;;;;;;7.40;4.60;;;11.00;1.00;;;;;;4994199;28;20452;-79
2022/11/25 13:48:27;;;;;;;8.20;5.13;;;11.10;1.00;;;;;;4992935;28;20430;-78
2022/11/25 13:51:21;;;;;;;9.20;4.53;;;11.10;1.00;;;;;;4997052;28;20419;-77
2022/11/25 13:54:05;;;;;;;8.40;5.07;;;11.00;1.00;;;;;;5006576;28;21035;-77
2022/11/25 13:56:35;;;;;;;8.87;4.60;;;11.00;1.00;;;;;;5004110;28;20477;-77
2022/11/25 13:59:19;;;;;;;16.43;5.97;;;11.10;1.00;;;;;;5011986;28;21002;-79
2022/11/25 14:02:21;;;;;;;9.50;4.33;;;11.30;1.00;;;;;;5007722;28;20970;-78
2022/11/25 14:05:19;;;;;;;13.90;6.30;;;11.00;1.00;;;;;;4999607;28;20435;-79
2022/11/25 14:07:50;;;;;;;13.73;5.90;;;11.00;1.00;;;;;;4994867;28;20470;-78
2022/11/25 14:10:43;;;;;;;15.93;5.43;;;11.00;1.00;;;;;;5091683;28;20969;-79
2022/11/25 14:13:30;;;;;;;12.30;4.80;;;11.00;1.00;;;;;;5091254;28;20768;-79
2022/11/25 14:16:18;;;;;;;10.43;4.90;;;11.00;1.00;;;;;;5082941;28;20915;-78
2022/11/25 14:18:50;;;;;;;11.80;4.63;;;10.90;1.00;;;;;;5081123;28;20462;-77
2022/11/25 14:21:30;;;;;;;8.17;4.60;;;11.00;1.00;;;;;;5092364;28;20463;-77
2022/11/25 14:24:10;;;;;;;8.07;4.43;;;10.90;1.00;;;;;;5086818;28;20423;-79
2022/11/25 14:26:39;;;;;;;9.20;4.43;;;11.00;1.00;;;;;;5091046;28;20404;-77
2022/11/25 14:29:20;;;;;;;9.00;4.90;;;11.00;1.00;;;;;;5081045;28;20462;-78
2022/11/25 14:32:18;;;;;;;8.00;4.27;;;10.90;1.00;;;;;;5082687;28;20962;-75
2022/11/25 14:34:56;;;;;;;8.37;4.33;;;10.90;1.00;;;;;;4993943;28;20928;-75
2022/11/25 14:37:40;;;;;;;13.07;4.43;;;10.90;1.00;;;;;;4999536;28;20903;-75
2022/11/25 14:40:08;;;;;;;10.77;5.00;;;11.00;1.00;;;;;;5001828;28;20478;-75
2022/11/25 14:42:41;;;;;;;11.87;5.03;;;11.10;1.00;;;;;;5011631;28;20982;-74
2022/11/25 14:45:36;;;;;;;10.67;4.40;;;11.10;1.00;;;;;;5011976;28;20444;-78
2022/11/25 14:48:23;;;;;;;11.60;4.80;;;11.20;1.00;;;;;;4999632;28;20401;-79
2022/11/25 14:51:05;;;;;;;11.57;4.13;;;11.20;1.00;;;;;;5011632;28;20426;-78
2022/11/25 14:53:43;;;;;;;7.40;4.00;;;11.10;1.00;;;;;;5011672;28;20428;-79
2022/11/25 14:56:48;;;;;;;11.30;4.10;;;11.10;1.00;;;;;;5011232;28;20917;-80
2022/11/25 14:59:48;;;;;;;9.13;3.50;;;11.00;1.00;;;;;;5011575;28;20481;-80
2022/11/25 15:02:38;;;;;;;7.27;3.73;;;10.90;1.00;;;;;;5010923;28;20554;-80
2022/11/25 15:05:20;;;;;;;10.33;4.00;;;10.90;1.00;;;;;;5015462;28;20412;-80
2022/11/25 15:15:00;;;;;;;9.30;4.30;;;10.70;1.00;;;;;;5081114;28;20522;-87
2022/11/25 15:17:34;;;;;;;9.70;3.60;;;10.60;1.00;;;;;;5081843;28;20460;-77
2022/11/25 15:20:16;;;;;;;12.20;3.50;;;10.50;1.00;;;;;;5092593;28;20474;-77
2022/11/25 15:22:50;;;;;;;9.93;3.80;;;10.40;1.00;;;;;;5093211;28;20523;-76
2022/11/25 15:25:18;;;;;;;9.30;3.73;;;10.30;1.00;;;;;;5089239;28;20907;-76
2022/11/25 15:27:51;;;;;;;9.40;3.43;;;10.20;1.00;;;;;;5083342;28;20405;-75
2022/11/25 15:30:36;;;;;;;7.27;3.87;;;10.10;1.00;;;;;;5084158;28;20467;-86
2022/11/25 15:36:37;;;;;;;11.23;3.67;;;9.90;1.00;;;;;;5087281;28;20466;-88
2022/11/25 15:42:27;;;;;;;4.23;2.93;;;9.50;1.00;;;;;;5090558;28;20464;-86
2022/11/25 15:45:04;;;;;;;12.63;3.20;;;9.30;1.00;;;;;;5082481;28;20412;-81
2022/11/25 15:47:43;;;;;;;11.30;3.57;;;9.10;1.00;;;;;;5075104;28;20419;-80
2022/11/25 15:50:21;;;;;;;8.37;3.13;;;9.00;1.00;;;;;;5092252;28;20930;-81
2022/11/25 15:52:51;;;;;;;9.47;4.10;;;8.80;1.00;;;;;;5083939;28;20859;-81
2022/11/25 15:55:33;;;;;;;10.00;3.83;;;8.70;1.00;;;;;;5081156;28;20427;-79
2022/11/25 15:58:22;;;;;;;7.83;4.00;;;8.60;1.00;;;;;;5086152;28;20445;-80
2022/11/25 16:01:36;;;;;;;12.37;4.43;;;8.50;1.00;;;;;;5086052;28;20603;-79
2022/11/25 16:04:24;;;;;;;10.37;4.27;;;8.50;1.00;;;;;;5086300;28;20404;-81
2022/11/25 16:06:55;;;;;;;15.17;5.70;;;8.50;1.00;;;;;;5075871;28;20418;-82
2022/11/25 16:09:24;;;;;;;16.67;5.87;;;8.50;1.00;;;;;;5075310;28;20421;-82
2022/11/25 16:12:18;;;;;;;8.23;3.60;;;8.50;1.00;;;;;;5096223;28;20438;-83
2022/11/25 16:18:11;;;;;;;10.47;4.73;;;8.40;1.00;;;;;;5076632;28;20396;-82
2022/11/25 16:21:07;;;;;;;14.00;4.60;;;8.40;1.00;;;;;;5087851;28;20467;-80
2022/11/25 16:23:39;;;;;;;15.90;4.90;;;8.40;1.00;;;;;;5081413;28;20403;-82
2022/11/25 16:26:26;;;;;;;11.93;4.50;;;8.40;1.00;;;;;;5084726;28;20466;-80
2022/11/25 16:28:55;;;;;;;10.03;4.93;;;8.60;1.00;;;;;;5077081;28;20420;-80
2022/11/25 16:31:54;;;;;;;16.40;4.63;;;8.60;1.00;;;;;;5076024;28;20389;-83
2022/11/25 16:34:42;;;;;;;16.30;6.20;;;8.60;1.00;;;;;;5075406;28;20385;-83
2022/11/25 16:37:12;;;;;;;21.23;5.53;;;8.50;3.40;;;;;;5083067;28;20757;-83
2022/11/25 16:40:00;;;;;;;16.83;6.60;;;8.60;9.50;;;;;;5082052;28;20543;-84
2022/11/25 16:42:31;;;;;;;10.63;5.67;;;8.70;10.60;;;;;;5084691;28;20452;-84
2022/11/25 16:45:00;;;;;;;14.70;4.83;;;8.80;8.70;;;;;;5081735;28;20828;-83
2022/11/25 16:47:30;;;;;;;12.23;5.10;;;8.80;7.30;;;;;;5088176;28;20416;-83
2022/11/25 16:50:26;;;;;;;12.40;4.60;;;8.90;5.30;;;;;;5081846;28;20420;-85
2022/11/25 16:52:54;;;;;;;18.83;5.60;;;8.90;3.60;;;;;;5013465;28;20801;-81
2022/11/25 16:55:25;;;;;;;12.07;5.03;;;8.90;3.00;;;;;;4996849;28;20426;-81
2022/11/25 16:58:27;;;;;;;16.00;4.50;;;8.80;2.70;;;;;;5013088;28;20427;-81
2022/11/25 17:04:25;;;;;;;9.10;4.87;;;8.90;1.80;;;;;;5013009;28;20421;-80
2022/11/25 17:06:50;;;;;;;13.97;4.63;;;8.90;1.00;;;;;;5012895;28;20447;-81
2022/11/25 17:09:25;;;;;;;10.90;4.20;;;9.00;1.00;;;;;;5012950;28;20467;-81
2022/11/25 17:11:56;;;;;;;15.23;5.10;;;8.90;1.00;;;;;;5011930;28;20185;-81
2022/11/25 17:14:37;;;;;;;13.60;5.07;;;8.90;1.00;;;;;;5008499;28;20427;-81
2022/11/25 17:17:22;;;;;;;10.63;5.17;;;8.90;1.00;;;;;;5013191;28;20435;-81
2022/11/25 17:19:54;;;;;;;14.77;4.47;;;9.00;1.00;;;;;;5012652;28;20454;-81
2022/11/25 17:22:23;;;;;;;18.27;5.30;;;9.00;1.00;;;;;;4991244;28;20471;-81
2022/11/25 17:24:57;;;;;;;16.13;5.13;;;9.00;1.00;;;;;;4977482;28;20837;-82
2022/11/25 17:27:48;;;;;;;8.07;4.83;;;9.10;1.00;;;;;;5011988;28;20495;-81
2022/11/25 17:30:54;;;;;;;8.60;4.83;;;9.10;1.00;;;;;;5069252;28;20503;-79
2022/11/25 17:33:24;;;;;;;8.07;4.30;;;9.10;1.00;;;;;;5089936;28;20413;-79
2022/11/25 17:36:25;;;;;;;15.33;5.60;;;9.00;1.00;;;;;;5084941;28;20813;-80
2022/11/25 17:39:00;;;;;;;8.83;4.50;;;9.00;1.00;;;;;;5077260;28;20417;-80
2022/11/25 17:41:30;;;;;;;9.50;5.10;;;9.00;1.00;;;;;;5074796;28;20437;-80
2022/11/25 17:44:20;;;;;;;16.37;4.80;;;8.90;1.00;;;;;;5086092;28;20431;-80
2022/11/25 17:47:00;;;;;;;10.80;5.27;;;8.90;1.00;;;;;;5075255;28;20397;-81
2022/11/25 17:49:44;;;;;;;10.00;4.53;;;8.90;1.00;;;;;;5073795;28;20409;-81
2022/11/25 17:52:30;;;;;;;11.80;4.50;;;8.90;1.00;;;;;;5072417;28;20444;-81
2022/11/25 17:55:00;;;;;;;20.30;5.20;;;8.80;1.00;;;;;;5074976;28;20420;-83
2022/11/25 17:57:28;;;;;;;13.80;4.40;;;8.70;1.00;;;;;;5076334;28;20916;-81
2022/11/25 17:59:54;;;;;;;9.60;4.87;;;8.70;1.00;;;;;;5073875;28;20449;-81
2022/11/25 18:02:24;;;;;;;8.40;3.97;;;8.60;1.00;;;;;;5081696;28;20447;-81
2022/11/25 18:05:00;;;;;;;9.03;4.60;;;8.60;1.00;;;;;;5092670;28;20783;-81
2022/11/25 18:07:26;;;;;;;11.47;4.50;;;8.60;1.00;;;;;;5081380;28;20449;-79
2022/11/25 18:09:51;;;;;;;11.33;4.60;;;8.50;1.00;;;;;;5072407;28;20417;-79
2022/11/25 18:12:26;;;;;;;11.87;4.90;;;8.60;1.00;;;;;;5073630;28;20182;-80
2022/11/25 18:14:53;;;;;;;9.90;4.83;;;8.60;1.00;;;;;;5077155;28;20177;-79
2022/11/25 18:17:19;;;;;;;8.57;4.10;;;8.60;1.00;;;;;;5083553;28;20404;-80
2022/11/25 18:19:48;;;;;;;8.10;4.67;;;8.60;1.00;;;;;;5076138;28;20566;-80
2022/11/25 18:22:30;;;;;;;8.53;4.20;;;8.70;1.00;;;;;;5093443;28;20455;-80
2022/11/25 18:25:14;;;;;;;15.00;5.00;;;8.70;1.00;;;;;;5073679;28;20926;-80